Home > Products > Valid Products > TAF

000
FTUS45 KMSO 271932 AAA
TAFSMN
TAF AMD
KSMN 271932Z 2720/2818 34006KT P6SM VCTS BKN040CB OVC090
     FM272100 34008KT P6SM -SHRA BKN040
     FM272200 33010G20KT P6SM VCTS BKN050CB
     FM280000 36007KT P6SM -SHRA BKN050
     FM280300 VRB05KT P6SM SCT050 OVC100
      AMD LTD TO CLD VIS AND WIND=



000
FTUS45 KMSO 271920 AAA
TAFBTM
TAF AMD
KBTM 271920Z 2719/2818 VRB03KT P6SM VCTS BKN050CB
      TEMPO 2719/2720 P6SM -TSRA BKN035CB
     FM272000 32010G20KT P6SM VCTS BKN050CB OVC080
     FM272200 26008KT P6SM -SHRA BKN050
     FM280300 29008KT P6SM BKN100=



000
FTUS45 KMSO 271720
TAFMSO
TAF
KMSO 271720Z 2718/2818 17005KT P6SM BKN080
     FM272100 34010G20KT P6SM VCTS BKN050CB
     FM272300 34008KT P6SM -SHRA BKN080
     FM280100 33007KT P6SM BKN100=



000
FTUS45 KMSO 271720
TAFSMN
TAF
KSMN 271720Z 2718/2818 21010G22KT P6SM -SHRA BKN045 OVC090
     FM271900 36006KT P6SM VCSH BKN050
     FM272200 33010G20KT P6SM VCTS BKN050CB
     FM280000 36007KT P6SM -SHRA BKN050
     FM280300 VRB05KT P6SM SCT050 OVC100
      AMD LTD TO CLD VIS AND WIND=



000
FTUS45 KMSO 271720
TAFBTM
TAF
KBTM 271720Z 2718/2818 VRB03KT P6SM VCTS BKN050CB
     FM271830 VRB04KT P6SM VCSH OVC080
     FM272000 32010G20KT P6SM VCTS BKN050CB OVC080
     FM272200 26008KT P6SM -SHRA BKN050
     FM280300 29008KT P6SM BKN100=



000
FTUS45 KMSO 271720
TAFMSO
TAF
KMSO 271720Z 2718/2818 17005KT P6SM BKN080
     FM272100 34010G20KT P6SM VCTS BKN050CB
     FM272300 34008KT P6SM -SHRA BKN080
     FM280100 33007KT P6SM BKN100=



000
FTUS45 KMSO 271720
TAFBTM
TAF
KBTM 271720Z 2718/2818 VRB03KT P6SM VCTS BKN050CB
     FM271830 VRB04KT P6SM VCSH OVC080
     FM272000 32010G20KT P6SM VCTS BKN050CB OVC080
     FM272200 26008KT P6SM -SHRA BKN050
     FM280300 29008KT P6SM BKN100=



000
FTUS45 KMSO 271720
TAFGPI
TAF
KGPI 271720Z 2718/2818 VRB04KT P6SM VCSH OVC050
     FM272100 16007KT P6SM VCSH BKN070
     FM280300 VRB04KT P6SM BKN100=



000
FTUS45 KMSO 271720
TAFSMN
TAF
KSMN 271720Z 2718/2818 21010G22KT P6SM -SHRA BKN045 OVC090
     FM271900 36006KT P6SM VCSH BKN050
     FM272200 33010G20KT P6SM VCTS BKN050CB
     FM280000 36007KT P6SM -SHRA BKN050
     FM280300 VRB05KT P6SM SCT050 OVC100
      AMD LTD TO CLD VIS AND WIND=



000
FTUS45 KMSO 271720
TAFGPI
TAF
KGPI 271720Z 2718/2818 VRB04KT P6SM VCSH OVC050
     FM272100 16007KT P6SM VCSH BKN070
     FM280300 VRB04KT P6SM BKN100=



000
FTUS45 KMSO 271659 AAA
TAFBTM
TAF AMD
KBTM 271659Z 2717/2812 VRB03KT P6SM VCSH OVC050
      TEMPO 2717/2718 36005KT P6SM -TSRA SCT060CB
     FM272000 32008KT P6SM -SHRA BKN050 OVC080
     FM272300 24008KT P6SM VCSH BKN070=



000
FTUS45 KMSO 271644 AAA
TAFSMN
TAF AMD
KSMN 271644Z 2717/2812 21010G22KT P6SM VCTS BKN045CB OVC090
     FM271800 36006KT P6SM VCSH BKN050
     FM272300 01007KT P6SM -SHRA OVC035
     FM280100 36007KT P6SM VCSH BKN060
      AMD LTD TO CLD VIS AND WIND=



000
FTUS45 KMSO 271134
TAFSMN
TAF
KSMN 271134Z 2712/2812 VRB04KT P6SM VCSH OVC090
     FM271300 00000KT P6SM VCFG SCT010 BKN060
     FM271800 36006KT P6SM VCSH BKN050
     FM272300 01007KT P6SM -SHRA OVC035
     FM280100 36007KT P6SM VCSH BKN060
      AMD LTD TO CLD VIS AND WIND=



000
FTUS45 KMSO 271134
TAFGPI
TAF
KGPI 271134Z 2712/2812 VRB05KT P6SM VCFG SCT040 OVC080
     FM271500 VRB03KT P6SM VCSH BKN050
     FM271800 17008KT P6SM -SHRA BKN040
     FM272200 16007KT P6SM VCSH BKN070
     FM280300 VRB04KT P6SM BKN100=



000
FTUS45 KMSO 271134
TAFBTM
TAF
KBTM 271134Z 2712/2812 VRB03KT P6SM VCSH OVC050
     FM271600 VRB04KT P6SM OVC080
     FM272000 32008KT P6SM -SHRA BKN050 OVC080
     FM272300 24008KT P6SM VCSH BKN070=



000
FTUS45 KMSO 271134
TAFMSO
TAF
KMSO 271134Z 2712/2812 VRB04KT P6SM OVC090
     FM271500 30008KT P6SM VCSH BKN050
     FM272200 34008KT P6SM -SHRA BKN040
     FM280100 33007KT P6SM BKN100=



000
FTUS45 KMSO 271134
TAFBTM
TAF
KBTM 271134Z 2712/2812 VRB03KT P6SM VCSH OVC050
     FM271600 VRB04KT P6SM OVC080
     FM272000 32008KT P6SM -SHRA BKN050 OVC080
     FM272300 24008KT P6SM VCSH BKN070=



000
FTUS45 KMSO 271134
TAFGPI
TAF
KGPI 271134Z 2712/2812 VRB05KT P6SM VCFG SCT040 OVC080
     FM271500 VRB03KT P6SM VCSH BKN050
     FM271800 17008KT P6SM -SHRA BKN040
     FM272200 16007KT P6SM VCSH BKN070
     FM280300 VRB04KT P6SM BKN100=



000
FTUS45 KMSO 271134
TAFMSO
TAF
KMSO 271134Z 2712/2812 VRB04KT P6SM OVC090
     FM271500 30008KT P6SM VCSH BKN050
     FM272200 34008KT P6SM -SHRA BKN040
     FM280100 33007KT P6SM BKN100=



000
FTUS45 KMSO 271134
TAFSMN
TAF
KSMN 271134Z 2712/2812 VRB04KT P6SM VCSH OVC090
     FM271300 00000KT P6SM VCFG SCT010 BKN060
     FM271800 36006KT P6SM VCSH BKN050
     FM272300 01007KT P6SM -SHRA OVC035
     FM280100 36007KT P6SM VCSH BKN060
      AMD LTD TO CLD VIS AND WIND=



000
FTUS45 KMSO 271030 AAA
TAFBTM
TAF AMD
KBTM 271030Z 2711/2806 VRB03KT P6SM VCSH OVC050
     FM271600 VRB04KT P6SM OVC080
     FM272000 32008KT P6SM -SHRA BKN050 OVC080
     FM272300 24008KT P6SM VCSH BKN070=



000
FTUS45 KMSO 270539
TAFMSO
TAF
KMSO 270539Z 2706/2806 VRB04KT P6SM OVC090
     FM271600 30008KT P6SM VCSH BKN050
     FM272200 34008KT P6SM -SHRA BKN040
     FM280100 33007KT P6SM BKN100=



000
FTUS45 KMSO 270539
TAFSMN
TAF
KSMN 270539Z 2706/2806 VRB04KT P6SM VCSH OVC090
     FM271100 00000KT P6SM VCFG SCT010 BKN060
     FM272000 36006KT P6SM VCSH BKN050
     FM272300 01007KT P6SM -SHRA OVC035
     FM280100 36007KT P6SM VCSH BKN060
      AMD LTD TO CLD VIS AND WIND=



000
FTUS45 KMSO 270539
TAFGPI
TAF
KGPI 270539Z 2706/2806 VRB05KT P6SM SCT040 OVC080
     FM271600 VRB03KT P6SM VCSH BKN050
     FM272000 17008KT P6SM -SHRA BKN040
     FM280000 16007KT P6SM VCSH BKN070=



000
FTUS45 KMSO 270539
TAFBTM
TAF
KBTM 270539Z 2706/2806 21007KT P6SM VCSH OVC050
     FM270900 VRB04KT P6SM OVC080
     FM272000 32008KT P6SM -SHRA BKN050 OVC080
     FM272300 24008KT P6SM VCSH BKN070=



000
FTUS45 KMSO 270313 AAC
TAFMSO
TAF AMD
KMSO 270313Z 2703/2724 31010KT P6SM VCTS BKN080CB BKN100
     FM270345 18015G25KT P6SM -TSRA BKN080CB
     FM270415 VRB06KT P6SM -SHRA BKN080 OVC150
     FM270600 VRB06KT P6SM BKN050 BKN080
     FM272000 30008KT P6SM VCSH BKN060=



000
FTUS45 KMSO 270231 AAB
TAFMSO
TAF AMD
KMSO 270231Z 2703/2724 30012G22KT P6SM -SHRA BKN080 OVC150
     FM270400 VRB06KT P6SM BKN050 BKN080
     FM272000 30008KT P6SM VCSH BKN060=



000
FTUS45 KMSO 270217 AAA
TAFBTM
TAF AMD
KBTM 270217Z 2702/2724 VRB10G20KT P6SM -SHRA VCTS BKN050CB OVC100
     FM270400 VRB06KT P6SM -SHRA OVC050
     FM271100 VRB04KT P6SM VCSH OVC060
     FM272200 32008KT P6SM -SHRA BKN050 OVC080=



000
FTUS45 KMSO 270217 AAA
TAFBTM
TAF AMD
KBTM 270217Z 2702/2724 VRB10G20KT P6SM -SHRA VCTS BKN050CB OVC100
     FM270400 VRB06KT P6SM -SHRA OVC050
     FM271100 VRB04KT P6SM VCSH OVC060
     FM272200 32008KT P6SM -SHRA BKN050 OVC080=



000
FTUS45 KMSO 262339
TAFBTM
TAF
KBTM 262339Z 2700/2724 30007KT P6SM VCSH SCT100
     FM270300 VRB10G20KT P6SM -SHRA VCTS BKN050CB OVC100
     FM270500 VRB06KT P6SM -SHRA OVC050
     FM271100 VRB04KT P6SM VCSH OVC060
     FM272200 32008KT P6SM -SHRA BKN050 OVC080=



000
FTUS45 KMSO 262339
TAFMSO
TAF
KMSO 262339Z 2700/2724 30010KT P6SM -SHRA BKN080 OVC150
     FM270400 VRB06KT P6SM BKN050 BKN080
     FM272000 30008KT P6SM VCSH BKN060=



000
FTUS45 KMSO 262339
TAFGPI
TAF
KGPI 262339Z 2700/2724 36008KT P6SM -SHRA SCT040 OVC060
     FM270200 VRB05KT P6SM SCT040 OVC080
     FM271600 VRB03KT P6SM VCSH SCT040 OVC080=



000
FTUS45 KMSO 262339
TAFSMN
TAF
KSMN 262339Z 2700/2724 36006G20KT P6SM -SHRA BKN060 OVC090
     FM270700 VRB06KT P6SM VCSH BKN080
     FM272000 36006KT P6SM -SHRA BKN060
      AMD LTD TO CLD VIS AND WIND=



000
FTUS45 KMSO 261720
TAFBTM
TAF
KBTM 261720Z 2618/2718 28009KT P6SM SCT022 BKN040
     FM262100 33007KT P6SM -SHRA OVC050
     FM271100 VRB04KT P6SM VCSH OVC060=



000
FTUS45 KMSO 261720
TAFSMN
TAF
KSMN 261720Z 2618/2718 36006KT P6SM SCT020 BKN150
     FM262100 01009KT P6SM -SHRA BKN060
     FM270700 VRB06KT P6SM VCSH BKN080
      AMD LTD TO CLD VIS AND WIND=



000
FTUS45 KMSO 261720
TAFMSO
TAF
KMSO 261720Z 2618/2718 32006KT P6SM VCSH SCT020 OVC080
     FM262200 36010KT P6SM -SHRA BKN080 OVC150
     FM270200 VRB06KT P6SM BKN100=



000
FTUS45 KMSO 261720
TAFBTM
TAF
KBTM 261720Z 2618/2718 28009KT P6SM SCT022 BKN040
     FM262100 33007KT P6SM -SHRA OVC050
     FM271100 VRB04KT P6SM VCSH OVC060=



000
FTUS45 KMSO 261720
TAFGPI
TAF
KGPI 261720Z 2618/2718 VRB05KT P6SM VCSH BKN090
     FM262200 36008KT P6SM -SHRA OVC040
     FM270200 VRB05KT P6SM SCT040 OVC080=



000
FTUS45 KMSO 261720
TAFSMN
TAF
KSMN 261720Z 2618/2718 36006KT P6SM SCT020 BKN150
     FM262100 01009KT P6SM -SHRA BKN060
     FM270700 VRB06KT P6SM VCSH BKN080
      AMD LTD TO CLD VIS AND WIND=



000
FTUS45 KMSO 261720
TAFMSO
TAF
KMSO 261720Z 2618/2718 32006KT P6SM VCSH SCT020 OVC080
     FM262200 36010KT P6SM -SHRA BKN080 OVC150
     FM270200 VRB06KT P6SM BKN100=



000
FTUS45 KMSO 261625 AAC
TAFMSO
TAF AMD
KMSO 261625Z 2616/2712 28003KT P6SM FEW012 BKN022 BKN110
     FM261800 32007KT P6SM VCSH BKN070
     FM270200 VRB06KT P6SM BKN100=



000
FTUS45 KMSO 261435 AAB
TAFSMN
TAF AMD
KSMN 261435Z 2615/2712 00000KT P6SM OVC029
     FM261600 36006KT P6SM BKN070
     FM262000 VRB04KT P6SM VCSH BKN070
     FM270200 VRB06KT P6SM BKN100
      AMD LTD TO CLD VIS AND WIND=



000
FTUS45 KMSO 261434 AAC
TAFMSO
TAF AMD
KMSO 261434Z 2615/2712 27004KT P6SM BKN013 OVC023
     FM261600 VRB04KT P6SM BKN100
     FM261800 32007KT P6SM VCSH BKN070
     FM270200 VRB06KT P6SM BKN100=



000
FTUS45 KMSO 261434 AAB
TAFGPI
TAF AMD
KGPI 261434Z 2615/2712 08003KT P6SM BKN100
     FM261800 17007KT P6SM VCSH BKN090
     FM262200 34007KT P6SM -SHRA OVC040
     FM270200 VRB05KT P6SM SCT040 OVC080=



000
FTUS45 KMSO 261434 AAC
TAFMSO
TAF AMD
KMSO 261434Z 2615/2712 27004KT P6SM BKN013 OVC023
     FM261600 VRB04KT P6SM BKN100
     FM261800 32007KT P6SM VCSH BKN070
     FM270200 VRB06KT P6SM BKN100=



000
FTUS45 KMSO 261259 AAA
TAFGPI
TAF AMD
KGPI 261259Z 2613/2712 00000KT 1SM BR VCFG BKN002
      TEMPO 2613/2614 1/2SM FG VV001
     FM261400 VRB03KT P6SM BKN050 OVC060
     FM261800 17007KT P6SM VCSH BKN090
     FM262200 34007KT P6SM -SHRA OVC040
     FM270200 VRB05KT P6SM SCT040 OVC080=



000
FTUS45 KMSO 261243 AAA
TAFSMN
TAF AMD
KSMN 261243Z 2613/2712 VRB04KT P6SM BKN030
     FM261500 VRB05KT P6SM BKN100
     FM262000 36006KT P6SM VCSH BKN070
     FM270200 VRB04KT P6SM BKN100
      AMD LTD TO CLD VIS AND WIND=



000
FTUS45 KMSO 261243 AAA
TAFSMN
TAF AMD
KSMN 261243Z 2613/2712 VRB04KT P6SM BKN030
     FM261500 VRB05KT P6SM BKN100
     FM262000 36006KT P6SM VCSH BKN070
     FM270200 VRB04KT P6SM BKN100
      AMD LTD TO CLD VIS AND WIND=



000
FTUS45 KMSO 261149 CCA
TAFGPI
TAF COR
KGPI 261149Z 2612/2712 00000KT 1SM BR VCFG BKN002
     FM261400 VRB03KT P6SM BKN050 OVC060
     FM261800 17007KT P6SM VCSH BKN090
     FM262200 34007KT P6SM -SHRA OVC040
     FM270200 VRB05KT P6SM SCT040 OVC080=



000
FTUS45 KMSO 261140
TAFMSO
TAF
KMSO 261140Z 2612/2712 VRB03KT P6SM BKN015
     FM261600 VRB04KT P6SM BKN100
     FM261800 32007KT P6SM VCSH BKN070
     FM270200 VRB06KT P6SM BKN100=



000
FTUS45 KMSO 261140
TAFSMN
TAF
KSMN 261140Z 2612/2712 VRB04KT P6SM BKN025
     FM261500 VRB05KT P6SM BKN100
     FM262000 36006KT P6SM VCSH BKN070
     FM270200 VRB04KT P6SM BKN100
      AMD LTD TO CLD VIS AND WIND=



000
FTUS45 KMSO 261140
TAFGPI
TAF
KGPI 261140Z 2612/2712 VRB03KT P6SM BKN050 OVC060
     FM261800 17007KT P6SM VCSH BKN090
     FM262200 34007KT P6SM -SHRA OVC040
     FM270200 VRB05KT P6SM SCT040 OVC080=



000
FTUS45 KMSO 261140
TAFBTM
TAF
KBTM 261140Z 2612/2712 VRB04KT P6SM BKN060
     FM262100 33007KT P6SM VCSH BKN050
     FM262300 35011KT P6SM -SHRA OVC035
     FM270400 VRB04KT P6SM OVC060=



000
FTUS45 KMSO 261140
TAFGPI
TAF
KGPI 261140Z 2612/2712 VRB03KT P6SM BKN050 OVC060
     FM261800 17007KT P6SM VCSH BKN090
     FM262200 34007KT P6SM -SHRA OVC040
     FM270200 VRB05KT P6SM SCT040 OVC080=



000
FTUS45 KMSO 261140
TAFMSO
TAF
KMSO 261140Z 2612/2712 VRB03KT P6SM BKN015
     FM261600 VRB04KT P6SM BKN100
     FM261800 32007KT P6SM VCSH BKN070
     FM270200 VRB06KT P6SM BKN100=



000
FTUS45 KMSO 261140
TAFSMN
TAF
KSMN 261140Z 2612/2712 VRB04KT P6SM BKN025
     FM261500 VRB05KT P6SM BKN100
     FM262000 36006KT P6SM VCSH BKN070
     FM270200 VRB04KT P6SM BKN100
      AMD LTD TO CLD VIS AND WIND=



000
FTUS45 KMSO 261140
TAFBTM
TAF
KBTM 261140Z 2612/2712 VRB04KT P6SM BKN060
     FM262100 33007KT P6SM VCSH BKN050
     FM262300 35011KT P6SM -SHRA OVC035
     FM270400 VRB04KT P6SM OVC060=



000
FTUS45 KMSO 261049 AAB
TAFMSO
TAF AMD
KMSO 261049Z 2611/2706 VRB03KT P6SM BKN015
     FM261500 VRB04KT P6SM BKN100
     FM261700 32007KT P6SM VCSH BKN060
     FM270200 VRB06KT P6SM BKN100=



000
FTUS45 KMSO 261049 AAB
TAFMSO
TAF AMD
KMSO 261049Z 2611/2706 VRB03KT P6SM BKN015
     FM261500 VRB04KT P6SM BKN100
     FM261700 32007KT P6SM VCSH BKN060
     FM270200 VRB06KT P6SM BKN100=



000
FTUS45 KMSO 261048 AAA
TAFSMN
TAF AMD
KSMN 261048Z 2611/2706 VRB04KT P6SM BKN025
     FM261500 VRB05KT P6SM BKN100
     FM262000 36006KT P6SM VCSH BKN070
      AMD LTD TO CLD VIS AND WIND=



000
FTUS45 KMSO 261048 AAA
TAFSMN
TAF AMD
KSMN 261048Z 2611/2706 VRB04KT P6SM BKN025
     FM261500 VRB05KT P6SM BKN100
     FM262000 36006KT P6SM VCSH BKN070
      AMD LTD TO CLD VIS AND WIND=



000
FTUS45 KMSO 260533
TAFBTM
TAF
KBTM 260533Z 2606/2706 29011KT P6SM -SHRA BKN040 OVC070
     FM260900 VRB06KT P6SM BKN100
     FM261800 33007KT P6SM VCSH BKN070=



000
FTUS45 KMSO 260533
TAFSMN
TAF
KSMN 260533Z 2606/2706 VRB04KT P6SM VCSH BKN060 OVC080
     FM260900 VRB05KT P6SM BKN100
     FM262000 36006KT P6SM VCSH BKN070
      AMD LTD TO CLD VIS AND WIND=



000
FTUS45 KMSO 260533
TAFGPI
TAF
KGPI 260533Z 2606/2706 17007KT P6SM BKN100
     FM260700 19006KT P6SM VCSH BKN050 OVC060
     FM261500 17007KT P6SM BKN090=



000
FTUS45 KMSO 260533
TAFMSO
TAF
KMSO 260533Z 2606/2706 VRB04KT P6SM BKN100
     FM261700 32007KT P6SM VCSH BKN060
     FM270200 VRB06KT P6SM BKN100=



000
FTUS45 KMSO 260533
TAFBTM
TAF
KBTM 260533Z 2606/2706 29011KT P6SM -SHRA BKN040 OVC070
     FM260900 VRB06KT P6SM BKN100
     FM261800 33007KT P6SM VCSH BKN070=



000
FTUS45 KMSO 260533
TAFSMN
TAF
KSMN 260533Z 2606/2706 VRB04KT P6SM VCSH BKN060 OVC080
     FM260900 VRB05KT P6SM BKN100
     FM262000 36006KT P6SM VCSH BKN070
      AMD LTD TO CLD VIS AND WIND=



000
FTUS45 KMSO 260533
TAFGPI
TAF
KGPI 260533Z 2606/2706 17007KT P6SM BKN100
     FM260700 19006KT P6SM VCSH BKN050 OVC060
     FM261500 17007KT P6SM BKN090=



000
FTUS45 KMSO 260533
TAFMSO
TAF
KMSO 260533Z 2606/2706 VRB04KT P6SM BKN100
     FM261700 32007KT P6SM VCSH BKN060
     FM270200 VRB06KT P6SM BKN100=



000
FTUS45 KMSO 252327
TAFGPI
TAF
KGPI 252327Z 2600/2624 23007KT P6SM -SHRA BKN060 OVC090
     FM260200 VRB06KT P6SM BKN100
     FM260700 VRB06KT P6SM -SHRA BKN050 OVC060
     FM260900 VRB04KT P6SM -RA BKN030 OVC040=



000
FTUS45 KMSO 252327
TAFBTM
TAF
KBTM 252327Z 2600/2624 30010KT P6SM -SHRA VCTS BKN060CB OVC100
     FM260200 15007KT P6SM -SHRA OVC070
     FM260800 VRB06KT P6SM BKN100=



000
FTUS45 KMSO 252327
TAFMSO
TAF
KMSO 252327Z 2600/2624 35012G21KT P6SM -RA BKN060 OVC080
     FM260200 34008KT P6SM -SHRA OVC060
     FM260500 32008KT P6SM VCSH BKN050
     FM260800 34007KT P6SM BKN100=



000
FTUS45 KMSO 252327
TAFSMN
TAF
KSMN 252327Z 2600/2624 VRB06G18KT P6SM -SHRA VCTS BKN050CB BKN070
     FM260200 VRB05KT P6SM -SHRA BKN060 BKN100
     FM260800 VRB05KT P6SM BKN120
      AMD LTD TO CLD VIS AND WIND=



000
FTUS45 KMSO 252327
TAFBTM
TAF
KBTM 252327Z 2600/2624 30010KT P6SM -SHRA VCTS BKN060CB OVC100
     FM260200 15007KT P6SM -SHRA OVC070
     FM260800 VRB06KT P6SM BKN100=



000
FTUS45 KMSO 252327
TAFMSO
TAF
KMSO 252327Z 2600/2624 35012G21KT P6SM -RA BKN060 OVC080
     FM260200 34008KT P6SM -SHRA OVC060
     FM260500 32008KT P6SM VCSH BKN050
     FM260800 34007KT P6SM BKN100=



000
FTUS45 KMSO 252327
TAFGPI
TAF
KGPI 252327Z 2600/2624 23007KT P6SM -SHRA BKN060 OVC090
     FM260200 VRB06KT P6SM BKN100
     FM260700 VRB06KT P6SM -SHRA BKN050 OVC060
     FM260900 VRB04KT P6SM -RA BKN030 OVC040=



000
FTUS45 KMSO 252327
TAFSMN
TAF
KSMN 252327Z 2600/2624 VRB06G18KT P6SM -SHRA VCTS BKN050CB BKN070
     FM260200 VRB05KT P6SM -SHRA BKN060 BKN100
     FM260800 VRB05KT P6SM BKN120
      AMD LTD TO CLD VIS AND WIND=



000
FTUS45 KMSO 251745
TAFMSO
TAF
KMSO 251745Z 2518/2618 19007KT P6SM VCSH BKN090
     FM252000 VRB06G25KT P6SM VCTS BKN070CB OVC100
     FM260100 34011G18KT P6SM -SHRA OVC060
     FM260500 32008KT P6SM VCSH BKN050
     FM260800 34007KT P6SM BKN100=



000
FTUS45 KMSO 251745
TAFGPI
TAF
KGPI 251745Z 2518/2618 18011KT P6SM -SHRA BKN050
     FM252100 VRB06G25KT P6SM VCTS BKN080CB
     FM260000 18007KT P6SM -SHRA BKN080
     FM260500 VRB06KT P6SM BKN100=



000
FTUS45 KMSO 251745
TAFSMN
TAF
KSMN 251745Z 2518/2618 VRB06KT P6SM BKN120
     FM252100 VRB06G25KT P6SM VCTS BKN060CB OVC100
     FM260200 VRB05KT P6SM -SHRA BKN100
     FM260800 VRB05KT P6SM BKN120
      AMD LTD TO CLD VIS AND WIND=



000
FTUS45 KMSO 251745
TAFBTM
TAF
KBTM 251745Z 2518/2618 35007KT P6SM BKN120
     FM252000 31015KT P6SM VCSH BKN070 OVC150
     FM260000 VRB06G25KT P6SM VCTS BKN070CB OVC150
     FM260400 15007KT P6SM -SHRA OVC070
     FM260800 VRB06KT P6SM BKN100=



000
FTUS45 KMSO 251720
TAFMSO
TAF
KMSO 251720Z 2518/2618 19007KT P6SM BKN090
     FM252000 VRB06G25KT P6SM VCTS BKN070CB OVC100
     FM260100 34011G18KT P6SM -SHRA OVC060
     FM260500 32008KT P6SM VCSH BKN050
     FM260800 34007KT P6SM BKN100=



000
FTUS45 KMSO 251720
TAFGPI
TAF
KGPI 251720Z 2518/2618 18011KT P6SM -SHRA BKN050
     FM252100 VRB06G25KT P6SM VCTS BKN080CB
     FM260000 18007KT P6SM -SHRA BKN080
     FM260500 VRB06KT P6SM BKN100=



000
FTUS45 KMSO 251720
TAFBTM
TAF
KBTM 251720Z 2518/2618 35007KT P6SM BKN120
     FM252000 31015KT P6SM VCSH BKN070 OVC150
     FM260000 VRB06G25KT P6SM VCTS BKN070CB OVC150
     FM260400 15007KT P6SM -SHRA OVC070
     FM260800 VRB06KT P6SM BKN100=



000
FTUS45 KMSO 251720
TAFSMN
TAF
KSMN 251720Z 2518/2618 VRB06KT P6SM BKN120
     FM252100 VRB06G25KT P6SM VCTS BKN060CB OVC100
     FM260200 VRB05KT P6SM -SHRA BKN100
     FM260800 VRB05KT P6SM BKN120
      AMD LTD TO CLD VIS AND WIND=



000
FTUS45 KMSO 251138
TAFSMN
TAF
KSMN 251138Z 2512/2612 VRB04KT P6SM SCT150
     FM252000 36007KT P6SM VCSH BKN060
     FM252300 30009KT P6SM -SHRA BKN050
     FM260200 VRB05KT P6SM VCSH BKN100
     FM260800 VRB03KT P6SM SCT120
      AMD LTD TO CLD VIS AND WIND=



000
FTUS45 KMSO 251138
TAFMSO
TAF
KMSO 251138Z 2512/2612 10007KT P6SM FEW100
     FM252000 34011KT P6SM VCSH BKN100
     FM252200 35011G18KT P6SM -SHRA OVC040
     FM260200 32008KT P6SM VCSH BKN050
     FM260600 34007KT P6SM BKN100=



000
FTUS45 KMSO 251138
TAFBTM
TAF
KBTM 251138Z 2512/2612 15007KT P6SM BKN090
     FM252000 VRB06KT P6SM VCSH BKN070
     FM260000 32011KT P6SM -SHRA BKN050
     FM260400 15007KT P6SM BKN100=



000
FTUS45 KMSO 251138
TAFGPI
TAF
KGPI 251138Z 2512/2612 VRB04KT P6SM FEW100
     FM251600 17009KT P6SM VCSH BKN100
     FM251800 17011KT P6SM -SHRA BKN050
     FM252100 VRB04KT P6SM VCSH BKN070
     FM260300 17007KT P6SM BKN100=



000
FTUS45 KMSO 250532
TAFGPI
TAF
KGPI 250532Z 2506/2606 VRB04KT P6SM FEW100
     FM251600 17009KT P6SM VCSH BKN100
     FM251800 17011KT P6SM -SHRA BKN050=



000
FTUS45 KMSO 250532
TAFBTM
TAF
KBTM 250532Z 2506/2606 15007KT P6SM BKN090
     FM252000 VRB06KT P6SM VCSH BKN070
     FM260200 32011KT P6SM -SHRA BKN050=



000
FTUS45 KMSO 250532
TAFSMN
TAF
KSMN 250532Z 2506/2606 VRB04KT P6SM BKN080
     FM252000 36007KT P6SM VCSH BKN060
     FM252300 30009KT P6SM -SHRA BKN050
     FM260200 VRB05KT P6SM BKN100
      AMD LTD TO CLD VIS AND WIND=



000
FTUS45 KMSO 250532
TAFMSO
TAF
KMSO 250532Z 2506/2606 10007KT P6SM FEW100
     FM252000 34011KT P6SM VCSH BKN100
     FM252200 35011G18KT P6SM -SHRA OVC040
     FM260200 32008KT P6SM VCSH BKN050=



000
FTUS45 KMSO 242323
TAFBTM
TAF
KBTM 242323Z 2500/2524 04012KT P6SM VCSH BKN060
     FM250300 VRB06KT P6SM BKN100=



000
FTUS45 KMSO 242323
TAFSMN
TAF
KSMN 242323Z 2500/2524 09012KT P6SM VCSH BKN050
     FM250200 01006KT P6SM BKN090
      AMD LTD TO CLD VIS AND WIND=



000
FTUS45 KMSO 242323
TAFMSO
TAF
KMSO 242323Z 2500/2524 13012KT P6SM BKN100
     FM250200 14007KT P6SM FEW100
     FM251300 15005KT P6SM BKN100=



000
FTUS45 KMSO 242323
TAFGPI
TAF
KGPI 242323Z 2500/2524 16008KT P6SM FEW100
     FM251200 VRB06KT P6SM BKN100=



000
FTUS45 KMSO 242323
TAFGPI
TAF
KGPI 242323Z 2500/2524 16008KT P6SM FEW100
     FM251200 VRB06KT P6SM BKN100=



000
FTUS45 KMSO 242323
TAFBTM
TAF
KBTM 242323Z 2500/2524 04012KT P6SM VCSH BKN060
     FM250300 VRB06KT P6SM BKN100=



000
FTUS45 KMSO 242323
TAFMSO
TAF
KMSO 242323Z 2500/2524 13012KT P6SM BKN100
     FM250200 14007KT P6SM FEW100
     FM251300 15005KT P6SM BKN100=



000
FTUS45 KMSO 242323
TAFSMN
TAF
KSMN 242323Z 2500/2524 09012KT P6SM VCSH BKN050
     FM250200 01006KT P6SM BKN090
      AMD LTD TO CLD VIS AND WIND=



    US Dept of Commerce
    National Oceanic and Atmospheric Administration
    National Weather Service
    1325 East West Highway
    Silver Spring, MD 20910
    Page Author: NWS Internet Services Team
Disclaimer
Information Quality
Credits
Glossary
Privacy Policy
Freedom of Information Act (FOIA)
About Us
Career Opportunities